Time;durP1;ratioP1;P1;durP2;ratioP2;P2;SDS_P1;SDS_P2;PMS_P1;PMS_P2;Temp;Humidity;BMP_temperature;BMP_pressure;BME280_temperature;BME280_humidity;BME280_pressure;Samples;Min_cycle;Max_cycle;Signal;HPM_P1;HPM_P2
2022/04/26 03:37:38;;;;;;;7.03;5.13;;;;;;;3.69;81.36;101663.00;4965652;28;20298;-78
2022/04/26 03:40:04;;;;;;;7.47;5.53;;;;;;;3.73;80.88;101667.47;4973249;28;20811;-77
2022/04/26 03:42:29;;;;;;;7.17;5.67;;;;;;;3.75;80.91;101659.16;4970724;28;20204;-76
2022/04/26 03:44:55;;;;;;;7.53;5.27;;;;;;;3.75;81.61;101665.88;4956398;28;20196;-76
2022/04/26 03:47:20;;;;;;;7.57;5.40;;;;;;;3.69;80.89;101665.53;4975195;28;20689;-77
2022/04/26 03:49:46;;;;;;;7.40;5.63;;;;;;;3.68;80.95;101668.84;4973731;28;20220;-77
2022/04/26 03:52:11;;;;;;;7.00;5.07;;;;;;;3.69;81.44;101665.53;4973782;28;20204;-77
2022/04/26 03:54:36;;;;;;;9.83;5.90;;;;;;;3.70;81.26;101670.69;4955874;28;20191;-76
2022/04/26 03:57:02;;;;;;;6.70;5.37;;;;;;;3.66;81.09;101680.50;4955994;28;20216;-76
2022/04/26 03:59:27;;;;;;;7.67;5.80;;;;;;;3.66;81.54;101680.50;4955665;28;20207;-77
2022/04/26 04:01:53;;;;;;;8.07;6.00;;;;;;;3.69;80.90;101673.97;4956114;28;20211;-77
2022/04/26 04:04:18;;;;;;;9.37;5.23;;;;;;;3.74;81.23;101676.78;4972727;28;20630;-76
2022/04/26 04:06:43;;;;;;;8.33;5.97;;;;;;;3.73;80.66;101680.13;4993156;28;20220;-77
2022/04/26 04:09:10;;;;;;;7.80;5.70;;;;;;;3.69;81.34;101686.63;4974461;28;20199;-77
2022/04/26 04:11:35;;;;;;;8.23;5.37;;;;;;;3.68;80.70;101679.81;4992088;28;20191;-76
2022/04/26 04:14:01;;;;;;;9.13;5.77;;;;;;;3.70;81.09;101685.00;4975513;28;20493;-77
2022/04/26 04:16:28;;;;;;;9.23;6.10;;;;;;;3.65;80.64;101691.44;4974731;28;20239;-77
2022/04/26 04:21:37;;;;;;;7.77;5.80;;;;;;;3.67;80.50;101689.84;4953621;28;20177;-78
2022/04/26 04:24:03;;;;;;;7.57;5.63;;;;;;;3.65;80.42;101691.44;4968235;28;20208;-77
2022/04/26 04:26:28;;;;;;;10.50;6.33;;;;;;;3.71;81.00;101687.63;4953267;29;20197;-77
2022/04/26 04:28:54;;;;;;;7.73;5.70;;;;;;;3.69;80.80;101689.16;4936629;29;20211;-78
2022/04/26 04:31:19;;;;;;;7.87;6.00;;;;;;;3.72;80.80;101691.88;4952787;28;20212;-77
2022/04/26 04:33:46;;;;;;;9.37;6.23;;;;;;;3.82;81.49;101688.25;4968336;28;20189;-77
2022/04/26 04:36:11;;;;;;;8.97;6.53;;;;;;;3.90;81.61;101692.09;4967979;28;20227;-76
2022/04/26 04:38:37;;;;;;;11.93;7.30;;;;;;;3.92;81.66;101696.47;5004007;28;20200;-77
2022/04/26 04:41:02;;;;;;;11.83;6.30;;;;;;;3.94;81.24;101697.44;4973660;28;20295;-79
2022/04/26 04:43:28;;;;;;;13.07;7.50;;;;;;;4.08;81.20;101693.19;4972113;28;20199;-77
2022/04/26 04:45:53;;;;;;;11.17;7.50;;;;;;;4.22;81.83;101695.75;4973143;28;20180;-78
2022/04/26 04:48:19;;;;;;;10.17;7.53;;;;;;;4.30;81.77;101689.47;4973274;28;20188;-78
2022/04/26 04:50:44;;;;;;;11.47;8.60;;;;;;;4.43;81.49;101703.72;4972651;28;20255;-76
2022/04/26 04:53:10;;;;;;;13.27;7.73;;;;;;;4.52;81.68;101710.16;4973419;28;20188;-77
2022/04/26 04:55:38;;;;;;;11.57;7.10;;;;;;;4.64;81.42;101715.94;4974025;28;20294;-79
2022/04/26 04:58:04;;;;;;;11.67;8.20;;;;;;;4.80;81.76;101710.06;4990848;28;20661;-77
2022/04/26 05:00:30;;;;;;;10.73;7.63;;;;;;;4.89;80.60;101714.00;4974164;28;20208;-77
2022/04/26 05:02:55;;;;;;;11.17;7.80;;;;;;;5.01;80.82;101703.66;4974790;28;20280;-77
2022/04/26 05:05:20;;;;;;;11.10;7.57;;;;;;;5.13;80.41;101719.56;4991626;28;20219;-78
2022/04/26 05:07:47;;;;;;;10.67;7.03;;;;;;;5.22;80.09;101712.44;4991217;28;20192;-79
2022/04/26 05:10:13;;;;;;;10.13;7.33;;;;;;;5.35;80.11;101717.41;4962935;28;20294;-78
2022/04/26 05:12:38;;;;;;;10.73;7.03;;;;;;;5.44;79.99;101713.66;4940655;28;20228;-78
2022/04/26 05:15:04;;;;;;;9.63;7.40;;;;;;;5.57;79.54;101722.84;4967771;28;20192;-76
2022/04/26 05:17:29;;;;;;;10.77;7.80;;;;;;;5.71;78.96;101726.97;4955775;28;20199;-77
2022/04/26 05:19:55;;;;;;;10.90;7.53;;;;;;;5.87;78.47;101719.38;4986142;28;20258;-78
2022/04/26 05:22:21;;;;;;;9.30;7.00;;;;;;;6.01;78.42;101720.97;4971678;28;20218;-78
2022/04/26 05:24:58;;;;;;;12.13;7.53;;;;;;;6.26;78.00;101716.34;4960456;28;20684;-77
2022/04/26 05:27:25;;;;;;;8.53;6.30;;;;;;;6.56;76.63;101715.31;4958110;28;20200;-77
2022/04/26 05:29:51;;;;;;;10.37;6.80;;;;;;;6.74;75.89;101723.84;4960725;28;20219;-77
2022/04/26 05:32:21;;;;;;;8.63;6.87;;;;;;;6.98;75.77;101714.81;4973893;28;20242;-77
2022/04/26 05:34:46;;;;;;;7.97;6.50;;;;;;;7.22;74.55;101716.84;4991177;28;20651;-77
2022/04/26 05:37:11;;;;;;;8.80;6.60;;;;;;;7.44;74.09;101716.16;4972876;28;20223;-77
2022/04/26 05:39:37;;;;;;;8.90;6.80;;;;;;;7.63;73.06;101714.53;4990532;28;20211;-78
2022/04/26 05:42:03;;;;;;;11.13;7.63;;;;;;;7.76;72.89;101711.72;4991247;28;20624;-78
2022/04/26 05:44:28;;;;;;;9.17;6.63;;;;;;;7.86;72.32;101711.31;4973357;28;20915;-76
2022/04/26 05:46:53;;;;;;;9.60;6.33;;;;;;;8.01;72.54;101706.88;4957675;28;20203;-78
2022/04/26 05:49:18;;;;;;;8.37;7.30;;;;;;;7.94;73.24;101715.09;4954175;28;20196;-77
2022/04/26 05:51:44;;;;;;;10.47;7.07;;;;;;;8.06;72.90;101715.59;4953733;28;20295;-76
2022/04/26 05:54:09;;;;;;;9.03;7.23;;;;;;;8.29;72.04;101714.09;4953836;28;20192;-76
2022/04/26 05:56:35;;;;;;;8.80;6.90;;;;;;;8.31;71.93;101720.09;4953798;28;20295;-77
2022/04/26 05:59:01;;;;;;;13.70;6.87;;;;;;;8.54;71.52;101715.16;4971159;28;20810;-78
2022/04/26 06:01:26;;;;;;;8.20;6.70;;;;;;;8.74;69.69;101711.75;4958315;28;20216;-76
2022/04/26 06:03:51;;;;;;;9.20;6.87;;;;;;;8.91;70.47;101717.53;4973138;28;20251;-78
2022/04/26 06:06:17;;;;;;;10.07;6.47;;;;;;;9.09;70.17;101715.69;4986016;28;20247;-78
2022/04/26 06:08:42;;;;;;;9.67;7.10;;;;;;;9.27;69.14;101718.97;4970794;28;20267;-78
2022/04/26 06:11:08;;;;;;;10.53;7.03;;;;;;;9.43;68.74;101713.59;4965858;28;21065;-78
2022/04/26 06:13:33;;;;;;;9.77;7.07;;;;;;;9.54;69.59;101714.91;4980902;28;20247;-78
2022/04/26 06:15:59;;;;;;;9.00;6.33;;;;;;;9.74;68.68;101724.16;4989141;28;20219;-77
2022/04/26 06:18:24;;;;;;;11.53;6.70;;;;;;;9.88;69.06;101717.88;4994020;28;20195;-78
2022/04/26 06:20:50;;;;;;;7.67;6.10;;;;;;;9.97;67.74;101708.84;4997362;28;20215;-77
2022/04/26 06:23:15;;;;;;;9.40;6.67;;;;;;;10.11;66.64;101715.34;4992332;28;20184;-77
2022/04/26 06:25:40;;;;;;;10.27;6.70;;;;;;;10.24;65.91;101714.97;4978979;28;20194;-77
2022/04/26 06:28:08;;;;;;;7.73;6.70;;;;;;;10.52;67.07;101720.19;4990791;28;20184;-76
2022/04/26 06:30:36;;;;;;;8.20;6.70;;;;;;;10.65;65.07;101722.31;4973404;28;20207;-77
2022/04/26 06:33:01;;;;;;;7.90;6.60;;;;;;;10.85;64.64;101720.41;4956681;28;20198;-78
2022/04/26 06:35:27;;;;;;;10.23;7.17;;;;;;;11.08;65.24;101710.09;4985533;28;20213;-78
2022/04/26 06:37:52;;;;;;;7.23;6.23;;;;;;;11.29;63.64;101718.41;4969522;28;20251;-78
2022/04/26 06:40:17;;;;;;;9.80;6.93;;;;;;;11.40;63.66;101717.06;4970760;28;20958;-78
2022/04/26 06:42:43;;;;;;;10.50;6.93;;;;;;;11.57;63.11;101717.56;4969283;28;20251;-79
2022/04/26 06:45:08;;;;;;;8.43;6.37;;;;;;;11.80;63.15;101717.41;4971027;28;20574;-79
2022/04/26 06:47:34;;;;;;;8.03;6.83;;;;;;;12.06;62.68;101726.72;4971135;28;20188;-79
2022/04/26 06:50:01;;;;;;;9.03;6.77;;;;;;;12.29;61.68;101717.94;4973213;28;20242;-78
2022/04/26 06:52:28;;;;;;;8.43;6.53;;;;;;;12.41;60.80;101719.94;4977556;28;20810;-77
2022/04/26 06:54:53;;;;;;;9.03;6.93;;;;;;;12.60;61.77;101719.59;4976934;28;20198;-78
2022/04/26 06:57:19;;;;;;;7.87;6.57;;;;;;;12.80;60.96;101720.94;4976750;28;20223;-79
2022/04/26 06:59:44;;;;;;;7.70;6.30;;;;;;;13.03;59.40;101716.41;4994129;28;20200;-78
2022/04/26 07:02:09;;;;;;;9.00;6.97;;;;;;;13.15;59.09;101714.09;4994422;28;20180;-78
2022/04/26 07:04:35;;;;;;;11.23;7.03;;;;;;;13.00;58.58;101701.78;4976856;28;20192;-78
2022/04/26 07:07:00;;;;;;;9.67;6.67;;;;;;;13.03;58.19;101706.13;4994537;28;20191;-78
2022/04/26 07:09:25;;;;;;;9.93;6.83;;;;;;;13.01;58.28;101698.34;4997234;28;20194;-78
2022/04/26 07:11:52;;;;;;;8.13;6.87;;;;;;;13.20;58.62;101692.78;5000709;28;20247;-78
2022/04/26 07:14:18;;;;;;;9.13;6.83;;;;;;;13.54;58.06;101697.81;5014066;28;20194;-78
2022/04/26 07:16:48;;;;;;;9.23;7.00;;;;;;;13.79;57.62;101696.63;5012333;28;20237;-78
2022/04/26 07:19:13;;;;;;;7.93;7.13;;;;;;;13.83;57.63;101703.56;4995024;28;20257;-77
2022/04/26 07:21:38;;;;;;;9.57;7.00;;;;;;;14.04;57.27;101702.28;4993648;28;20191;-77
2022/04/26 07:24:04;;;;;;;9.30;6.43;;;;;;;14.12;58.58;101707.56;4993136;28;20653;-78
2022/04/26 07:26:33;;;;;;;10.93;7.00;;;;;;;14.21;58.27;101716.41;4978006;28;20677;-78
2022/04/26 07:29:08;;;;;;;9.83;6.40;;;;;;;14.27;57.61;101713.06;4977751;28;20186;-78
2022/04/26 07:31:35;;;;;;;9.23;7.03;;;;;;;14.51;58.36;101706.63;4977365;28;20689;-79
2022/04/26 07:34:23;;;;;;;8.10;6.27;;;;;;;14.84;56.19;101714.06;4996996;28;20191;-78
2022/04/26 07:37:04;;;;;;;7.97;6.70;;;;;;;15.02;55.17;101716.94;4996390;28;20688;-79
2022/04/26 07:39:30;;;;;;;7.80;6.20;;;;;;;15.27;54.17;101719.91;4993347;28;20207;-74
2022/04/26 07:41:56;;;;;;;8.07;6.20;;;;;;;15.43;54.12;101721.88;4993832;28;20188;-78
2022/04/26 07:44:22;;;;;;;7.23;6.40;;;;;;;15.47;53.00;101718.47;4980764;28;20188;-75
2022/04/26 07:46:49;;;;;;;8.20;7.17;;;;;;;15.57;52.88;101722.91;4993209;28;20271;-74
2022/04/26 07:49:16;;;;;;;8.90;6.80;;;;;;;15.86;52.66;101716.44;4994005;28;20250;-75
2022/04/26 07:51:42;;;;;;;8.03;6.40;;;;;;;15.38;52.99;101725.25;4976488;28;20191;-77
2022/04/26 07:54:09;;;;;;;8.97;6.60;;;;;;;15.69;52.32;101717.94;4993287;28;20330;-76
2022/04/26 07:56:34;;;;;;;9.27;6.97;;;;;;;15.78;52.39;101722.31;4976860;28;20354;-75
2022/04/26 07:59:01;;;;;;;7.80;6.37;;;;;;;15.87;53.86;101722.44;4975348;28;20691;-76
2022/04/26 08:01:27;;;;;;;7.63;6.40;;;;;;;16.35;52.25;101723.84;4997193;28;20219;-76
2022/04/26 08:03:53;;;;;;;8.07;7.23;;;;;;;16.24;50.79;101725.47;4991562;28;20217;-75
2022/04/26 08:06:18;;;;;;;7.93;6.40;;;;;;;16.50;51.52;101734.41;4990061;28;20256;-75
2022/04/26 08:08:44;;;;;;;9.67;6.83;;;;;;;16.64;50.18;101729.34;4997190;28;20184;-74
2022/04/26 08:11:12;;;;;;;7.87;6.80;;;;;;;16.85;50.38;101730.38;5007941;28;20216;-75
2022/04/26 08:13:41;;;;;;;8.33;6.90;;;;;;;17.00;49.88;101732.22;4976616;28;20238;-76
2022/04/26 08:16:07;;;;;;;7.53;6.30;;;;;;;17.14;48.97;101731.47;4972920;28;20304;-76
2022/04/26 08:18:32;;;;;;;8.07;6.50;;;;;;;17.39;48.81;101729.91;5000259;28;20660;-76
2022/04/26 08:20:58;;;;;;;8.73;6.60;;;;;;;17.36;48.09;101728.16;4979546;28;20250;-74
2022/04/26 08:23:24;;;;;;;8.37;6.57;;;;;;;17.26;47.92;101735.84;4975618;28;20194;-76
2022/04/26 08:28:33;;;;;;;10.03;6.40;;;;;;;17.83;47.33;101733.63;4992970;28;20199;-74
2022/04/26 08:31:00;;;;;;;8.83;6.80;;;;;;;18.06;46.45;101740.59;4992961;28;20211;-77
2022/04/26 08:33:30;;;;;;;7.93;6.47;;;;;;;18.17;45.44;101743.25;4975112;28;20234;-76
2022/04/26 08:35:55;;;;;;;8.57;6.70;;;;;;;17.81;45.08;101735.31;4990644;28;20247;-76
2022/04/26 08:38:21;;;;;;;8.13;6.77;;;;;;;18.32;46.90;101740.69;4990929;28;20281;-74
2022/04/26 08:40:46;;;;;;;9.17;6.27;;;;;;;18.29;45.58;101746.72;4991517;28;20215;-75
2022/04/26 08:43:12;;;;;;;7.43;5.90;;;;;;;18.50;43.80;101746.81;4992835;28;20295;-76
2022/04/26 08:45:38;;;;;;;7.10;6.10;;;;;;;18.46;44.20;101746.81;4975861;28;20179;-74
2022/04/26 08:51:04;;;;;;;7.23;5.80;;;;;;;18.88;42.34;101745.13;4992105;28;20222;-74
2022/04/26 08:53:32;;;;;;;6.30;5.67;;;;;;;19.01;41.87;101743.38;4974922;28;20250;-77
2022/04/26 08:56:04;;;;;;;6.33;5.10;;;;;;;18.99;40.98;101745.13;4974489;28;20208;-74
2022/04/26 08:58:34;;;;;;;6.90;6.00;;;;;;;19.00;40.41;101747.72;4991293;28;20187;-75
2022/04/26 09:01:06;;;;;;;6.40;4.73;;;;;;;19.24;39.38;101747.72;4992142;28;20234;-75
2022/04/26 09:03:56;;;;;;;5.63;5.10;;;;;;;19.54;39.41;101752.88;4992908;28;20199;-76
2022/04/26 09:06:30;;;;;;;5.87;5.00;;;;;;;19.72;39.76;101749.34;4990601;28;20184;-76
2022/04/26 09:09:09;;;;;;;6.03;5.20;;;;;;;19.67;39.51;101746.75;4983941;28;20190;-74
2022/04/26 09:11:35;;;;;;;7.37;6.03;;;;;;;19.39;40.56;101741.66;4942739;28;20208;-74
2022/04/26 09:14:04;;;;;;;7.03;5.80;;;;;;;19.53;40.14;101750.28;4974713;28;20641;-75
2022/04/26 09:16:30;;;;;;;6.77;6.07;;;;;;;19.94;40.94;101746.66;4974401;28;20310;-75
2022/04/26 09:19:01;;;;;;;7.33;5.43;;;;;;;20.14;40.50;101754.41;4990305;28;20323;-75
2022/04/26 09:21:28;;;;;;;5.97;5.33;;;;;;;20.26;40.00;101746.56;4990549;28;20219;-75
2022/04/26 09:24:07;;;;;;;6.70;5.90;;;;;;;20.23;39.24;101750.00;4991240;28;20188;-74
2022/04/26 09:26:38;;;;;;;7.53;6.27;;;;;;;20.37;39.48;101745.63;4957830;28;20188;-74
2022/04/26 09:29:05;;;;;;;9.27;6.03;;;;;;;20.29;39.15;101750.00;4989785;28;20884;-76
2022/04/26 09:31:35;;;;;;;6.90;5.73;;;;;;;20.08;40.85;101752.69;4973909;28;20696;-76
2022/04/26 09:34:05;;;;;;;7.40;5.47;;;;;;;20.75;38.58;101742.72;4974124;28;20210;-73
2022/04/26 09:36:35;;;;;;;8.17;5.63;;;;;;;20.58;38.29;101747.19;4989237;28;20238;-76
2022/04/26 09:39:02;;;;;;;9.10;5.67;;;;;;;21.08;37.80;101751.16;4991154;28;20625;-75
2022/04/26 09:41:29;;;;;;;6.53;5.37;;;;;;;21.29;36.76;101737.91;4986334;28;20347;-75
2022/04/26 09:44:04;;;;;;;6.63;6.03;;;;;;;21.42;36.51;101749.09;4995834;28;20191;-76
2022/04/26 09:46:42;;;;;;;6.07;5.47;;;;;;;21.36;36.08;101744.81;4978561;28;20571;-75
2022/04/26 09:49:09;;;;;;;7.33;5.23;;;;;;;21.22;35.54;101749.28;4999890;28;20685;-74
2022/04/26 09:51:39;;;;;;;7.53;5.20;;;;;;;21.70;36.81;101740.13;4972971;28;20219;-75
2022/04/26 09:54:05;;;;;;;6.47;5.23;;;;;;;21.97;35.20;101750.25;4989509;28;20207;-75
2022/04/26 09:56:31;;;;;;;6.20;5.20;;;;;;;22.15;34.07;101739.53;4973365;28;20219;-76
2022/04/26 09:58:59;;;;;;;6.77;6.17;;;;;;;22.09;33.48;101740.50;4989301;28;20184;-75
2022/04/26 10:01:38;;;;;;;8.20;5.47;;;;;;;21.16;34.82;101741.56;4970288;28;20204;-75
2022/04/26 10:04:04;;;;;;;7.60;5.37;;;;;;;21.83;35.21;101741.72;4972778;28;20246;-75
2022/04/26 10:06:37;;;;;;;5.30;4.80;;;;;;;22.63;32.85;101725.81;4972938;28;20192;-75
2022/04/26 10:09:05;;;;;;;6.90;5.03;;;;;;;22.35;32.55;101738.38;4990383;28;20180;-75
2022/04/26 10:11:31;;;;;;;5.20;4.63;;;;;;;22.46;33.42;101743.47;4990418;28;20299;-76
2022/04/26 10:13:59;;;;;;;4.73;4.33;;;;;;;23.02;32.01;101732.16;4977220;28;20326;-75
2022/04/26 10:16:26;;;;;;;5.63;5.10;;;;;;;23.25;32.18;101735.25;4969498;28;20283;-78
2022/04/26 10:19:01;;;;;;;5.70;5.10;;;;;;;23.28;31.98;101733.44;4953248;28;20185;-76
2022/04/26 10:21:26;;;;;;;5.50;4.97;;;;;;;23.24;32.05;101733.53;4989079;28;20265;-78
2022/04/26 10:23:51;;;;;;;4.93;4.27;;;;;;;23.32;32.38;101732.50;4988834;28;20651;-78
2022/04/26 10:26:22;;;;;;;6.13;5.17;;;;;;;22.85;31.13;101740.28;4988537;28;20172;-78
2022/04/26 10:28:53;;;;;;;6.10;5.50;;;;;;;22.15;32.11;101729.97;4990617;28;20191;-75
2022/04/26 10:31:32;;;;;;;6.93;6.23;;;;;;;20.64;33.50;101745.41;4978908;28;20211;-77
2022/04/26 10:33:58;;;;;;;7.63;5.17;;;;;;;21.39;34.42;101747.41;4980647;28;20206;-76
2022/04/26 10:36:27;;;;;;;7.60;6.00;;;;;;;21.05;34.61;101742.53;4992485;28;20226;-75
2022/04/26 10:39:13;;;;;;;8.23;5.17;;;;;;;22.04;33.30;101736.22;4985856;28;20191;-75
2022/04/26 10:41:41;;;;;;;5.80;5.20;;;;;;;23.11;31.02;101727.59;4990089;28;20206;-77
2022/04/26 10:44:12;;;;;;;9.10;5.73;;;;;;;23.20;30.58;101731.84;4990197;28;20198;-77
2022/04/26 10:46:38;;;;;;;5.97;5.37;;;;;;;23.39;31.26;101734.06;4990663;28;20206;-75
2022/04/26 10:49:23;;;;;;;5.97;5.40;;;;;;;22.90;30.33;101727.13;4990645;28;20869;-76
2022/04/26 10:51:51;;;;;;;6.30;5.30;;;;;;;22.85;32.55;101737.66;4973817;28;20302;-77
2022/04/26 10:54:48;;;;;;;6.93;5.37;;;;;;;22.72;31.58;101746.56;4974366;28;20188;-77
2022/04/26 10:57:26;;;;;;;6.03;5.37;;;;;;;22.25;32.95;101738.56;4990369;28;20712;-77
2022/04/26 10:59:56;;;;;;;6.47;5.67;;;;;;;21.85;33.93;101747.78;4973500;28;20207;-77
2022/04/26 11:02:23;;;;;;;7.40;5.67;;;;;;;21.73;33.15;101750.50;4973412;28;20187;-78
2022/04/26 11:05:34;;;;;;;6.47;5.47;;;;;;;20.90;34.00;101759.13;4990956;28;20183;-75
2022/04/26 11:08:00;;;;;;;6.17;5.50;;;;;;;20.87;36.32;101760.88;4966033;28;20592;-75
2022/04/26 11:10:27;;;;;;;8.00;5.87;;;;;;;20.64;36.05;101761.03;4992414;28;20214;-77
2022/04/26 11:12:53;;;;;;;6.33;5.43;;;;;;;20.76;35.06;101760.94;4978590;28;20325;-78
2022/04/26 11:15:20;;;;;;;7.80;6.23;;;;;;;20.57;35.10;101763.69;4991719;28;20295;-76
2022/04/26 11:17:47;;;;;;;8.07;5.73;;;;;;;20.56;35.72;101769.78;4991809;28;20192;-77
2022/04/26 11:20:17;;;;;;;6.17;5.53;;;;;;;20.38;35.43;101764.69;4983536;28;20254;-76
2022/04/26 11:22:48;;;;;;;6.33;5.60;;;;;;;19.91;35.94;101766.63;4986233;28;20714;-76
2022/04/26 11:28:09;;;;;;;6.10;5.50;;;;;;;20.47;35.06;101764.63;4990545;28;20204;-76
2022/04/26 11:30:54;;;;;;;7.63;5.27;;;;;;;21.24;33.56;101767.53;4972455;28;20757;-77
2022/04/26 11:33:24;;;;;;;7.03;5.47;;;;;;;20.81;34.51;101766.97;4957028;28;20286;-76
2022/04/26 11:35:55;;;;;;;5.90;5.33;;;;;;;21.41;33.85;101765.59;4992251;28;20223;-76
2022/04/26 11:38:21;;;;;;;7.93;5.40;;;;;;;21.70;34.29;101761.84;4976662;28;20180;-76
2022/04/26 11:40:51;;;;;;;6.33;4.87;;;;;;;22.10;31.63;101762.22;5001717;28;20804;-76
2022/04/26 11:43:28;;;;;;;6.47;4.17;;;;;;;22.30;30.92;101763.69;4959760;28;20295;-77
2022/04/26 11:45:56;;;;;;;7.10;4.60;;;;;;;22.32;31.84;101760.22;4992601;28;20172;-77
2022/04/26 11:48:26;;;;;;;5.80;4.43;;;;;;;22.65;31.37;101760.59;4991230;28;20238;-76
2022/04/26 11:50:53;;;;;;;6.90;4.57;;;;;;;22.89;31.09;101759.34;4975888;28;20211;-77
2022/04/26 11:53:24;;;;;;;6.10;4.40;;;;;;;23.11;29.79;101766.81;4992983;28;20180;-76
2022/04/26 11:56:05;;;;;;;6.77;3.80;;;;;;;22.79;30.21;101763.84;4976094;28;20243;-77
2022/04/26 11:58:33;;;;;;;5.23;4.37;;;;;;;23.16;29.48;101759.75;4990980;28;20849;-77
2022/04/26 12:01:12;;;;;;;4.90;4.17;;;;;;;23.86;30.79;101767.19;4991252;28;20336;-78
2022/04/26 12:03:52;;;;;;;6.40;4.03;;;;;;;24.19;28.90;101754.28;4992896;28;20263;-77
2022/04/26 12:06:28;;;;;;;5.65;3.80;;;;;;;23.93;28.44;101761.81;4989829;28;20182;-77
2022/04/26 12:08:58;;;;;;;4.70;4.30;;;;;;;23.47;29.50;101760.09;4991571;28;20274;-76
2022/04/26 12:11:26;;;;;;;5.37;3.97;;;;;;;23.86;29.84;101756.72;4991955;28;20199;-75
2022/04/26 12:13:58;;;;;;;4.37;3.90;;;;;;;23.85;30.81;101755.84;4980437;28;20250;-77
2022/04/26 12:16:23;;;;;;;6.43;4.80;;;;;;;23.24;28.63;101759.66;4993431;28;20339;-77
2022/04/26 12:18:54;;;;;;;5.37;4.50;;;;;;;22.51;29.56;101765.16;5012470;28;20186;-78
2022/04/26 12:21:21;;;;;;;6.20;4.57;;;;;;;21.94;29.85;101765.91;4976623;28;20216;-75
2022/04/26 12:23:47;;;;;;;4.37;3.90;;;;;;;22.35;29.86;101761.88;4975253;28;20266;-76
2022/04/26 12:26:13;;;;;;;4.90;4.40;;;;;;;21.98;30.10;101765.84;4991251;28;20537;-77
2022/04/26 12:28:49;;;;;;;5.20;4.47;;;;;;;21.12;31.09;101775.44;4975376;28;20780;-76
2022/04/26 12:31:22;;;;;;;5.83;3.80;;;;;;;20.95;31.18;101767.78;4992319;28;20561;-75
2022/04/26 12:34:12;;;;;;;5.50;4.20;;;;;;;21.45;31.23;101773.41;4959661;28;20195;-75
2022/04/26 12:36:53;;;;;;;4.10;3.70;;;;;;;21.10;32.53;101775.44;4991843;28;20215;-77
2022/04/26 12:39:24;;;;;;;4.97;4.53;;;;;;;21.04;32.44;101772.03;4992357;28;20196;-76
2022/04/26 12:41:51;;;;;;;5.07;4.10;;;;;;;22.42;31.41;101765.25;5008018;28;20203;-77
2022/04/26 12:44:19;;;;;;;4.77;3.97;;;;;;;22.98;29.07;101752.22;4992136;28;20190;-76
2022/04/26 12:50:27;;;;;;;4.60;3.80;;;;;;;22.55;30.52;101764.25;4992094;28;20192;-75
2022/04/26 12:52:47;;;;;;;6.60;4.27;;;;;;;21.23;31.43;101768.41;4992561;28;20191;-76
2022/04/26 12:55:22;;;;;;;6.60;4.10;;;;;;;21.54;29.82;101767.22;4974397;28;20188;-78
2022/04/26 12:57:53;;;;;;;5.43;3.83;;;;;;;21.57;28.93;101757.63;4991197;28;20187;-76
2022/04/26 13:00:19;;;;;;;5.10;3.87;;;;;;;22.01;28.88;101760.59;4974665;28;20207;-76
2022/04/26 13:02:50;;;;;;;5.13;4.17;;;;;;;22.38;29.45;101753.13;4974398;28;20176;-76
2022/04/26 13:05:15;;;;;;;5.90;5.30;;;;;;;22.57;27.81;101759.00;4975057;28;20208;-77
2022/04/26 13:07:46;;;;;;;5.23;4.27;;;;;;;22.71;29.27;101751.81;4989223;28;20676;-77
2022/04/26 13:10:12;;;;;;;5.97;4.17;;;;;;;22.30;30.32;101752.41;4974300;28;20585;-76
2022/04/26 13:12:38;;;;;;;6.70;4.10;;;;;;;22.46;30.05;101753.94;4978184;28;20242;-76
2022/04/26 13:15:04;;;;;;;4.50;4.10;;;;;;;22.18;30.36;101757.78;4991881;28;20199;-77
2022/04/26 13:17:30;;;;;;;4.70;4.00;;;;;;;21.09;31.70;101765.06;4957788;28;20715;-76
2022/04/26 13:19:55;;;;;;;4.43;4.03;;;;;;;20.90;31.30;101760.88;4973633;28;20208;-76
2022/04/26 13:22:21;;;;;;;4.50;3.63;;;;;;;20.65;30.54;101761.91;4990318;28;20195;-77
2022/04/26 13:24:47;;;;;;;4.30;3.90;;;;;;;20.50;31.76;101762.84;5006324;28;20355;-77
2022/04/26 13:27:12;;;;;;;4.60;4.20;;;;;;;20.40;32.15;101765.56;5009811;28;20191;-76
2022/04/26 13:29:37;;;;;;;4.27;3.83;;;;;;;21.52;32.73;101759.41;5010906;28;20203;-77
2022/04/26 13:32:04;;;;;;;5.60;4.03;;;;;;;21.82;29.84;101756.50;5011099;28;20270;-78
2022/04/26 13:34:29;;;;;;;4.97;4.13;;;;;;;22.20;29.37;101756.03;5011179;28;20193;-76
2022/04/26 13:36:55;;;;;;;6.23;4.37;;;;;;;22.03;28.76;101755.38;5008524;28;20570;-77
2022/04/26 13:39:20;;;;;;;4.83;4.30;;;;;;;22.07;29.20;101751.84;4996265;28;20777;-77
2022/04/26 13:41:50;;;;;;;4.60;3.77;;;;;;;22.37;29.55;101745.34;4983630;28;20669;-78
2022/04/26 13:44:19;;;;;;;5.90;3.80;;;;;;;22.68;28.47;101746.63;4993520;28;20195;-79
2022/04/26 13:46:44;;;;;;;4.10;3.70;;;;;;;22.38;30.64;101747.91;4992685;28;20187;-78
2022/04/26 13:49:10;;;;;;;4.50;4.07;;;;;;;22.18;29.93;101749.94;4992908;28;20554;-77
2022/04/26 13:51:36;;;;;;;4.13;3.73;;;;;;;22.26;31.62;101746.34;5009860;28;20277;-75
2022/04/26 13:54:01;;;;;;;4.77;4.27;;;;;;;21.84;29.40;101746.06;5010433;28;20199;-78
2022/04/26 13:56:26;;;;;;;5.80;4.20;;;;;;;22.25;30.91;101744.63;5009317;28;20222;-77
2022/04/26 13:58:52;;;;;;;5.73;4.30;;;;;;;22.16;31.00;101742.13;4975238;28;20195;-77
2022/04/26 14:01:17;;;;;;;5.80;4.37;;;;;;;22.16;28.99;101738.69;5010730;28;20214;-78
2022/04/26 14:03:42;;;;;;;4.57;3.77;;;;;;;22.42;30.16;101746.97;5010664;28;20547;-77
2022/04/26 14:06:10;;;;;;;4.27;3.87;;;;;;;22.22;29.10;101751.63;5005153;28;20680;-78
2022/04/26 14:08:36;;;;;;;6.23;4.10;;;;;;;22.08;30.21;101758.78;4989918;28;20675;-78
2022/04/26 14:11:02;;;;;;;5.30;4.40;;;;;;;22.11;29.68;101748.31;4972823;28;20302;-76
2022/04/26 14:13:28;;;;;;;5.60;4.40;;;;;;;22.37;30.72;101740.97;4976163;28;20325;-77
2022/04/26 14:24:06;;;;;;;5.30;3.67;;;;;;;22.53;29.11;101744.25;4990023;28;20691;-77
2022/04/26 14:26:31;;;;;;;4.10;3.70;;;;;;;22.68;30.23;101739.66;4973576;28;20190;-78
2022/04/26 14:28:56;;;;;;;4.10;3.67;;;;;;;22.15;29.63;101742.13;4990242;28;20176;-78
2022/04/26 14:31:22;;;;;;;6.57;3.53;;;;;;;22.12;30.89;101742.22;4959907;28;20280;-77
2022/04/26 14:33:47;;;;;;;5.23;3.87;;;;;;;22.11;30.70;101743.09;4975556;28;20202;-77
2022/04/26 14:36:13;;;;;;;4.83;4.40;;;;;;;22.00;29.53;101747.56;4992095;28;20214;-77
2022/04/26 14:38:38;;;;;;;5.23;3.80;;;;;;;21.27;30.89;101749.25;4970409;28;20298;-76
2022/04/26 14:41:04;;;;;;;4.90;3.90;;;;;;;21.54;32.05;101751.56;4990248;28;20358;-77
2022/04/26 14:43:29;;;;;;;5.03;3.97;;;;;;;21.83;31.49;101757.38;4989902;28;20191;-77
2022/04/26 14:45:55;;;;;;;4.07;3.60;;;;;;;21.16;30.99;101758.91;4989867;28;20238;-75
2022/04/26 14:48:23;;;;;;;4.20;3.60;;;;;;;20.77;32.62;101754.88;4991211;28;20191;-77
2022/04/26 14:50:49;;;;;;;4.73;3.60;;;;;;;20.62;32.26;101759.31;4975702;28;20264;-78
2022/04/26 14:53:15;;;;;;;4.43;4.00;;;;;;;20.19;32.78;101763.06;5009937;28;20190;-75
2022/04/26 14:55:41;;;;;;;4.53;3.80;;;;;;;20.16;32.35;101758.72;4991519;28;20219;-75
2022/04/26 14:58:09;;;;;;;5.03;4.17;;;;;;;20.04;32.49;101755.28;4992036;28;20191;-78
2022/04/26 15:00:36;;;;;;;4.80;4.03;;;;;;;20.12;33.13;101758.72;5001249;28;20322;-77
2022/04/26 15:03:02;;;;;;;5.80;3.93;;;;;;;20.06;32.41;101764.81;4983717;28;20211;-75
2022/04/26 15:05:28;;;;;;;5.37;4.20;;;;;;;20.17;31.94;101757.00;4986984;28;20203;-78
2022/04/26 15:10:37;;;;;;;4.93;3.97;;;;;;;20.41;30.66;101755.09;4992082;28;20211;-77
2022/04/26 15:18:32;;;;;;;5.33;3.80;;;;;;;20.20;32.34;101756.97;4991878;28;20196;-77
2022/04/26 15:20:57;;;;;;;4.77;4.33;;;;;;;20.14;31.29;101755.28;4975832;28;20223;-77
2022/04/26 15:23:23;;;;;;;5.20;4.17;;;;;;;19.79;32.19;101754.53;5005424;28;20202;-75
2022/04/26 15:25:52;;;;;;;6.27;4.50;;;;;;;19.59;32.51;101755.44;5011386;28;20753;-77
2022/04/26 15:28:21;;;;;;;4.40;4.00;;;;;;;19.59;32.71;101756.34;5011153;28;20213;-78
2022/04/26 15:30:48;;;;;;;5.20;3.70;;;;;;;19.62;33.12;101753.69;4993664;28;20211;-77
2022/04/26 15:33:14;;;;;;;6.17;4.57;;;;;;;19.46;31.85;101751.16;4992016;28;20191;-75
2022/04/26 15:35:42;;;;;;;6.50;4.07;;;;;;;19.46;31.62;101749.44;4991254;28;20290;-79
2022/04/26 15:38:12;;;;;;;5.90;4.13;;;;;;;19.33;32.92;101767.63;4981965;28;20283;-78